createdAt,value
2022-11-16T00:01:13.949Z,100.00
2022-11-16T00:03:42.597Z,100.00
2022-11-16T00:06:11.586Z,100.00
2022-11-16T00:08:42.233Z,100.00
2022-11-16T00:11:16.191Z,100.00
2022-11-16T00:13:43.768Z,100.00
2022-11-16T00:16:18.342Z,100.00
2022-11-16T00:18:45.679Z,100.00
2022-11-16T00:21:13.372Z,100.00
2022-11-16T00:23:40.717Z,100.00
2022-11-16T00:26:09.879Z,100.00
2022-11-16T00:28:37.824Z,100.00
2022-11-16T00:31:07.608Z,100.00
2022-11-16T00:33:35.592Z,100.00
2022-11-16T00:36:11.872Z,100.00
2022-11-16T00:38:40.009Z,100.00
2022-11-16T00:41:08.787Z,100.00
2022-11-16T00:43:36.573Z,100.00
2022-11-16T00:46:04.715Z,100.00
2022-11-16T00:48:32.856Z,100.00
2022-11-16T00:51:00.419Z,100.00
2022-11-16T00:53:27.911Z,100.00
2022-11-16T00:55:55.541Z,100.00
2022-11-16T00:58:23.044Z,100.00
2022-11-16T01:00:51.144Z,100.00
2022-11-16T01:03:18.983Z,100.00
2022-11-16T01:05:47.060Z,100.00
2022-11-16T01:08:14.830Z,100.00
2022-11-16T01:10:42.551Z,100.00
2022-11-16T01:13:11.204Z,100.00
2022-11-16T01:15:38.643Z,100.00
2022-11-16T01:18:06.307Z,100.00
2022-11-16T01:20:33.818Z,100.00
2022-11-16T01:23:01.305Z,100.00
2022-11-16T01:25:29.034Z,100.00
2022-11-16T01:27:56.862Z,100.00
2022-11-16T01:30:24.767Z,100.00
2022-11-16T01:32:54.076Z,100.00
2022-11-16T01:35:21.623Z,100.00
2022-11-16T01:37:49.222Z,100.00
2022-11-16T01:40:16.985Z,100.00
2022-11-16T01:42:44.471Z,100.00
2022-11-16T01:45:37.475Z,100.00
2022-11-16T01:48:06.358Z,100.00
2022-11-16T01:50:36.116Z,100.00
2022-11-16T01:53:06.057Z,100.00
2022-11-16T01:55:37.077Z,100.00
2022-11-16T01:58:06.699Z,100.00
2022-11-16T02:00:34.914Z,100.00
2022-11-16T02:03:04.147Z,100.00
2022-11-16T02:06:07.531Z,100.00
2022-11-16T02:09:27.187Z,100.00
2022-11-16T02:12:14.001Z,100.00
2022-11-16T02:15:07.969Z,100.00
2022-11-16T02:17:52.764Z,100.00
2022-11-16T02:21:05.896Z,100.00
2022-11-16T02:23:58.391Z,100.00
2022-11-16T02:26:26.036Z,100.00
2022-11-16T02:29:21.726Z,100.00
2022-11-16T02:32:03.919Z,100.00
2022-11-16T02:34:38.679Z,100.00
2022-11-16T02:37:10.626Z,100.00
2022-11-16T02:39:40.025Z,100.00
2022-11-16T02:42:15.439Z,100.00
2022-11-16T02:44:46.450Z,100.00
2022-11-16T02:47:22.103Z,100.00
2022-11-16T02:49:57.780Z,100.00
2022-11-16T02:52:28.307Z,100.00
2022-11-16T02:54:56.170Z,100.00
2022-11-16T02:57:42.345Z,100.00
2022-11-16T03:00:35.640Z,100.00
2022-11-16T03:03:18.430Z,100.00
2022-11-16T03:05:54.848Z,100.00
2022-11-16T03:08:39.884Z,100.00
2022-11-16T03:11:30.771Z,100.00
2022-11-16T03:14:14.465Z,100.00
2022-11-16T03:16:51.283Z,100.00
2022-11-16T03:19:29.232Z,100.00
2022-11-16T03:22:10.196Z,100.00
2022-11-16T03:24:39.088Z,100.00
2022-11-16T03:27:16.866Z,100.00
2022-11-16T03:30:05.791Z,100.00
2022-11-16T03:32:41.332Z,100.00
2022-11-16T03:35:24.377Z,100.00
2022-11-16T03:37:55.078Z,100.00
2022-11-16T03:40:26.744Z,100.00
2022-11-16T03:42:56.151Z,100.00
2022-11-16T03:45:24.390Z,100.00
2022-11-16T03:47:52.422Z,100.00
2022-11-16T03:50:20.594Z,100.00
2022-11-16T03:52:48.055Z,100.00
2022-11-16T03:55:16.527Z,100.00
2022-11-16T03:57:44.452Z,100.00
2022-11-16T04:00:12.800Z,100.00
2022-11-16T04:02:40.655Z,100.00
2022-11-16T04:05:28.320Z,100.00
2022-11-16T04:08:14.422Z,100.00
2022-11-16T04:11:02.199Z,100.00
2022-11-16T04:13:52.084Z,100.00
2022-11-16T04:16:38.517Z,100.00
2022-11-16T04:19:24.733Z,100.00
2022-11-16T04:22:15.082Z,100.00
2022-11-16T04:24:47.846Z,100.00
2022-11-16T04:27:34.628Z,100.00
2022-11-16T04:30:04.539Z,100.00
2022-11-16T04:32:52.310Z,100.00
2022-11-16T04:35:38.167Z,100.00
2022-11-16T04:38:07.517Z,100.00
2022-11-16T04:40:35.855Z,100.00
2022-11-16T04:43:04.639Z,100.00
2022-11-16T04:45:51.819Z,100.00
2022-11-16T04:48:20.642Z,100.00
2022-11-16T04:50:48.923Z,100.00
2022-11-16T04:53:16.589Z,100.00
2022-11-16T04:55:44.728Z,100.00
2022-11-16T04:58:13.723Z,100.00
2022-11-16T05:00:41.310Z,100.00
2022-11-16T05:03:09.050Z,100.00
2022-11-16T05:05:36.736Z,100.00
2022-11-16T05:08:04.890Z,100.00
2022-11-16T05:10:32.615Z,100.00
2022-11-16T05:13:00.305Z,100.00
2022-11-16T05:15:27.853Z,100.00
2022-11-16T05:17:55.782Z,100.00
2022-11-16T05:20:42.881Z,100.00
2022-11-16T05:23:30.310Z,100.00
2022-11-16T05:25:58.490Z,100.00
2022-11-16T05:28:25.913Z,100.00
2022-11-16T05:30:53.414Z,100.00
2022-11-16T05:33:21.464Z,100.00
2022-11-16T05:35:52.471Z,100.00
2022-11-16T05:38:20.113Z,100.00
2022-11-16T05:40:48.078Z,100.00
2022-11-16T05:43:15.769Z,100.00
2022-11-16T05:45:43.712Z,100.00
2022-11-16T05:48:11.994Z,100.00
2022-11-16T05:50:42.771Z,100.00
2022-11-16T05:53:11.599Z,100.00
2022-11-16T05:55:39.286Z,100.00
2022-11-16T05:58:06.783Z,100.00
2022-11-16T06:00:34.830Z,100.00
2022-11-16T06:03:02.938Z,100.00
2022-11-16T06:05:32.462Z,100.00
2022-11-16T06:08:01.847Z,100.00
2022-11-16T06:10:30.830Z,100.00
2022-11-16T06:12:58.388Z,100.00
2022-11-16T06:15:26.120Z,100.00
2022-11-16T06:17:53.629Z,100.00
2022-11-16T06:20:21.771Z,100.00
2022-11-16T06:22:49.559Z,100.00
2022-11-16T06:25:17.836Z,100.00
2022-11-16T06:27:45.264Z,100.00
2022-11-16T06:30:13.739Z,100.00
2022-11-16T06:32:41.217Z,100.00
2022-11-16T06:35:08.919Z,100.00
2022-11-16T06:37:36.943Z,100.00
2022-11-16T06:40:04.903Z,100.00
2022-11-16T06:42:32.863Z,100.00
2022-11-16T06:45:01.278Z,100.00
2022-11-16T06:47:29.503Z,100.00
2022-11-16T06:49:59.118Z,100.00
2022-11-16T06:52:27.348Z,100.00
2022-11-16T06:54:55.554Z,100.00
2022-11-16T06:57:23.706Z,100.00
2022-11-16T06:59:51.583Z,100.00
2022-11-16T07:02:21.327Z,100.00
2022-11-16T07:04:48.864Z,100.00
2022-11-16T07:07:17.805Z,100.00
2022-11-16T07:09:45.642Z,100.00
2022-11-16T07:12:14.383Z,100.00
2022-11-16T07:14:42.490Z,100.00
2022-11-16T07:17:10.036Z,100.00
2022-11-16T07:19:37.888Z,100.00
2022-11-16T07:22:06.645Z,100.00
2022-11-16T07:24:34.324Z,100.00
2022-11-16T07:27:02.155Z,100.00
2022-11-16T07:29:31.309Z,100.00
2022-11-16T07:32:02.116Z,100.00
2022-11-16T07:34:30.721Z,100.00
2022-11-16T07:37:01.248Z,100.00
2022-11-16T07:39:28.744Z,100.00
2022-11-16T07:41:56.859Z,100.00
2022-11-16T07:44:24.707Z,100.00
2022-11-16T07:46:58.926Z,100.00
2022-11-16T07:49:26.288Z,100.00
2022-11-16T07:51:54.244Z,100.00
2022-11-16T07:54:22.559Z,100.00
2022-11-16T07:56:50.328Z,100.00
2022-11-16T07:59:27.506Z,100.00
2022-11-16T08:01:55.791Z,100.00
2022-11-16T08:04:24.659Z,100.00
2022-11-16T08:06:52.634Z,100.00
2022-11-16T08:09:20.327Z,100.00
2022-11-16T08:11:49.129Z,100.00
2022-11-16T08:14:18.599Z,100.00
2022-11-16T08:16:47.377Z,100.00
2022-11-16T08:19:15.360Z,100.00
2022-11-16T08:21:42.791Z,100.00
2022-11-16T08:24:10.306Z,100.00
2022-11-16T08:26:38.261Z,100.00
2022-11-16T08:29:06.643Z,100.00
2022-11-16T08:31:34.535Z,100.00
2022-11-16T08:34:05.896Z,100.00
2022-11-16T08:36:33.756Z,100.00
2022-11-16T08:39:02.827Z,100.00
2022-11-16T08:41:32.141Z,100.00
2022-11-16T08:44:01.092Z,100.00
2022-11-16T08:46:28.667Z,100.00
2022-11-16T08:48:57.607Z,100.00
2022-11-16T08:51:26.286Z,100.00
2022-11-16T08:53:57.048Z,100.00
2022-11-16T08:56:27.299Z,100.00
2022-11-16T08:58:58.991Z,100.00
2022-11-16T09:01:29.189Z,100.00
2022-11-16T09:03:57.203Z,100.00
2022-11-16T09:06:27.013Z,100.00
2022-11-16T09:08:55.909Z,100.00
2022-11-16T09:11:25.111Z,100.00
2022-11-16T09:13:54.495Z,100.00
2022-11-16T09:16:24.096Z,100.00
2022-11-16T09:18:52.060Z,100.00
2022-11-16T09:21:22.322Z,100.00
2022-11-16T09:23:50.607Z,100.00
2022-11-16T09:26:21.147Z,100.00
2022-11-16T09:28:55.755Z,100.00
2022-11-16T09:31:24.434Z,100.00
2022-11-16T09:33:51.913Z,100.00
2022-11-16T09:36:21.274Z,100.00
2022-11-16T09:42:03.202Z,100.00
2022-11-16T09:44:49.277Z,100.00
2022-11-16T09:47:21.669Z,100.00
2022-11-16T09:49:56.994Z,100.00
2022-11-16T09:52:30.188Z,100.00
2022-11-16T09:55:01.270Z,100.00
2022-11-16T09:57:34.266Z,100.00
2022-11-16T10:00:23.586Z,99.42
2022-11-16T10:03:02.237Z,99.83
2022-11-16T10:06:06.438Z,99.79
2022-11-16T10:08:43.660Z,99.38
2022-11-16T10:11:36.453Z,98.69
2022-11-16T10:14:22.244Z,98.80
2022-11-16T10:17:25.433Z,100.00
2022-11-16T10:20:16.952Z,100.00
2022-11-16T10:23:04.279Z,99.25
2022-11-16T10:26:15.365Z,99.84
2022-11-16T10:28:48.776Z,98.68
2022-11-16T10:31:30.298Z,98.72
2022-11-16T10:34:00.383Z,99.09
2022-11-16T10:36:31.663Z,99.19
2022-11-16T10:39:01.112Z,99.96
2022-11-16T10:41:39.457Z,99.33
2022-11-16T10:44:18.629Z,98.58
2022-11-16T10:47:00.969Z,97.93
2022-11-16T10:49:36.462Z,97.34
2022-11-16T10:52:04.515Z,98.61
2022-11-16T10:54:32.612Z,98.49
2022-11-16T10:57:08.811Z,98.53
2022-11-16T10:59:42.753Z,99.12
2022-11-16T11:02:34.754Z,98.80
2022-11-16T11:05:05.627Z,98.63
2022-11-16T11:07:39.908Z,98.57
2022-11-16T11:10:33.295Z,99.01
2022-11-16T11:13:21.446Z,98.32
2022-11-16T11:15:51.260Z,98.20
2022-11-16T11:18:26.152Z,99.58
2022-11-16T11:21:13.891Z,99.08
2022-11-16T11:23:45.595Z,99.02
2022-11-16T11:26:37.199Z,99.08
2022-11-16T11:29:31.807Z,99.14
2022-11-16T11:32:13.195Z,99.13
2022-11-16T11:34:45.663Z,99.33
2022-11-16T11:37:17.042Z,99.43
2022-11-16T11:39:44.923Z,98.45
2022-11-16T11:42:12.602Z,98.82
2022-11-16T11:44:44.549Z,99.04
2022-11-16T11:47:56.870Z,99.47
2022-11-16T11:50:16.701Z,99.06
2022-11-16T11:53:00.382Z,99.32
2022-11-16T11:55:29.315Z,99.17
2022-11-16T11:57:59.378Z,99.78
2022-11-16T12:00:26.939Z,100.00
2022-11-16T12:03:20.793Z,100.00
2022-11-16T12:06:26.535Z,100.00
2022-11-16T12:09:32.763Z,100.00
2022-11-16T12:12:34.393Z,100.00
2022-11-16T12:15:10.772Z,100.00
2022-11-16T12:17:58.754Z,100.00
2022-11-16T12:20:44.787Z,100.00
2022-11-16T12:23:47.889Z,100.00
2022-11-16T12:26:24.602Z,100.00
2022-11-16T12:29:19.565Z,100.00
2022-11-16T12:32:22.792Z,100.00
2022-11-16T12:35:19.317Z,100.00
2022-11-16T12:38:24.883Z,100.00
2022-11-16T12:41:21.443Z,100.00
2022-11-16T12:44:04.891Z,100.00
2022-11-16T12:46:41.175Z,100.00
2022-11-16T12:49:30.582Z,100.00
2022-11-16T12:52:42.444Z,100.00
2022-11-16T12:55:44.215Z,100.00
2022-11-16T12:58:20.333Z,100.00
2022-11-16T13:01:02.737Z,100.00
2022-11-16T13:03:30.542Z,100.00
2022-11-16T13:06:03.727Z,100.00
2022-11-16T13:08:44.134Z,100.00
2022-11-16T13:11:20.281Z,100.00
2022-11-16T13:13:53.680Z,100.00
2022-11-16T13:16:24.135Z,100.00
2022-11-16T13:18:53.337Z,100.00
2022-11-16T13:21:54.731Z,100.00
2022-11-16T13:24:52.390Z,100.00
2022-11-16T13:27:35.991Z,100.00
2022-11-16T13:30:22.236Z,100.00
2022-11-16T13:33:11.063Z,100.00
2022-11-16T13:35:39.563Z,100.00
2022-11-16T13:38:13.568Z,100.00
2022-11-16T13:40:41.406Z,100.00
2022-11-16T13:43:11.554Z,100.00
2022-11-16T13:45:41.294Z,100.00
2022-11-16T13:48:37.066Z,100.00
2022-11-16T13:51:08.226Z,100.00
2022-11-16T13:56:48.959Z,100.00
2022-11-16T13:59:26.105Z,100.00
2022-11-16T14:02:03.050Z,100.00
2022-11-16T14:04:53.171Z,100.00
2022-11-16T14:07:43.262Z,100.00
2022-11-16T14:10:31.936Z,100.00
2022-11-16T14:13:04.440Z,100.00
2022-11-16T14:15:37.324Z,100.00
2022-11-16T14:18:07.638Z,100.00
2022-11-16T14:20:57.059Z,100.00
2022-11-16T14:23:44.513Z,100.00
2022-11-16T14:26:37.916Z,100.00
2022-11-16T14:29:15.970Z,100.00
2022-11-16T14:31:52.317Z,100.00
2022-11-16T14:34:25.663Z,100.00
2022-11-16T14:36:53.847Z,100.00
2022-11-16T14:39:27.543Z,100.00
2022-11-16T14:42:00.590Z,100.00
2022-11-16T14:44:32.264Z,100.00
2022-11-16T14:47:02.601Z,100.00
2022-11-16T14:49:33.555Z,100.00
2022-11-16T14:52:03.391Z,100.00
2022-11-16T14:55:00.526Z,100.00
2022-11-16T14:57:28.548Z,100.00
2022-11-16T15:00:22.325Z,100.00
2022-11-16T15:02:59.175Z,100.00
2022-11-16T15:05:34.503Z,100.00
2022-11-16T15:08:08.394Z,100.00
2022-11-16T15:10:52.098Z,100.00
2022-11-16T15:13:24.941Z,100.00
2022-11-16T15:16:16.367Z,100.00
2022-11-16T15:19:01.783Z,100.00
2022-11-16T15:21:29.514Z,100.00
2022-11-16T15:26:44.696Z,100.00
2022-11-16T15:29:18.386Z,100.00
2022-11-16T15:31:46.783Z,100.00
2022-11-16T15:34:18.392Z,100.00
2022-11-16T15:36:47.340Z,100.00
2022-11-16T15:39:22.379Z,100.00
2022-11-16T15:41:51.917Z,100.00
2022-11-16T15:44:23.133Z,100.00
2022-11-16T15:46:53.884Z,100.00
2022-11-16T15:49:27.627Z,100.00
2022-11-16T15:51:55.171Z,100.00
2022-11-16T15:54:27.206Z,100.00
2022-11-16T15:57:13.258Z,100.00
2022-11-16T15:59:41.083Z,100.00
2022-11-16T16:02:19.057Z,100.00
2022-11-16T16:04:47.024Z,100.00
2022-11-16T16:07:38.686Z,100.00
2022-11-16T16:10:33.016Z,100.00
2022-11-16T16:13:02.051Z,100.00
2022-11-16T16:15:31.272Z,100.00
2022-11-16T16:18:01.360Z,100.00
2022-11-16T16:20:31.334Z,100.00
2022-11-16T16:23:13.331Z,100.00
2022-11-16T16:25:42.037Z,100.00
2022-11-16T16:28:12.396Z,100.00
2022-11-16T16:30:40.015Z,100.00
2022-11-16T16:33:19.103Z,100.00
2022-11-16T16:35:49.729Z,100.00
2022-11-16T16:38:17.381Z,100.00
2022-11-16T16:40:44.756Z,100.00
2022-11-16T16:43:12.598Z,100.00
2022-11-16T16:45:43.390Z,100.00
2022-11-16T16:48:14.191Z,100.00
2022-11-16T16:50:42.064Z,100.00
2022-11-16T16:53:13.419Z,100.00
2022-11-16T16:55:45.964Z,100.00
2022-11-16T16:58:14.319Z,100.00
2022-11-16T17:00:42.110Z,100.00
2022-11-16T17:03:10.039Z,100.00
2022-11-16T17:05:37.872Z,100.00
2022-11-16T17:08:05.658Z,100.00
2022-11-16T17:10:33.171Z,100.00
2022-11-16T17:13:03.083Z,100.00
2022-11-16T17:15:30.543Z,100.00
2022-11-16T17:17:59.358Z,100.00
2022-11-16T17:20:27.346Z,100.00
2022-11-16T17:22:56.439Z,100.00
2022-11-16T17:25:23.974Z,100.00
2022-11-16T17:27:51.846Z,100.00
2022-11-16T17:30:19.400Z,100.00
2022-11-16T17:32:47.026Z,100.00
2022-11-16T17:35:14.962Z,100.00
2022-11-16T17:37:43.363Z,100.00
2022-11-16T17:40:11.484Z,100.00
2022-11-16T17:42:39.719Z,100.00
2022-11-16T17:45:07.619Z,100.00
2022-11-16T17:47:35.179Z,100.00
2022-11-16T17:50:04.230Z,100.00
2022-11-16T17:52:31.803Z,100.00
2022-11-16T17:54:59.470Z,100.00
2022-11-16T17:57:27.192Z,100.00
2022-11-16T17:59:54.874Z,100.00
2022-11-16T18:02:22.327Z,100.00
2022-11-16T18:04:51.470Z,100.00
2022-11-16T18:07:19.291Z,100.00
2022-11-16T18:09:46.973Z,100.00
2022-11-16T18:12:14.661Z,100.00
2022-11-16T18:14:42.447Z,100.00
2022-11-16T18:17:10.246Z,100.00
2022-11-16T18:19:38.247Z,100.00
2022-11-16T18:22:05.831Z,100.00
2022-11-16T18:24:33.531Z,100.00
2022-11-16T18:27:01.463Z,100.00
2022-11-16T18:29:29.269Z,100.00
2022-11-16T18:31:56.912Z,100.00
2022-11-16T18:34:24.890Z,100.00
2022-11-16T18:36:52.465Z,100.00
2022-11-16T18:39:20.128Z,100.00
2022-11-16T18:41:54.540Z,100.00
2022-11-16T18:44:23.021Z,100.00
2022-11-16T18:46:50.954Z,100.00
2022-11-16T18:49:18.471Z,100.00
2022-11-16T18:51:46.182Z,100.00
2022-11-16T18:54:14.215Z,100.00
2022-11-16T18:56:41.917Z,100.00
2022-11-16T18:59:09.628Z,100.00
2022-11-16T19:01:37.727Z,100.00
2022-11-16T19:04:05.263Z,100.00
2022-11-16T19:06:33.040Z,100.00
2022-11-16T19:09:04.321Z,100.00
2022-11-16T19:11:31.893Z,100.00
2022-11-16T19:14:08.674Z,100.00
2022-11-16T19:16:36.986Z,100.00
2022-11-16T19:19:04.941Z,100.00
2022-11-16T19:21:32.517Z,100.00
2022-11-16T19:24:00.427Z,100.00
2022-11-16T19:26:28.433Z,100.00
2022-11-16T19:28:58.227Z,100.00
2022-11-16T19:31:30.064Z,100.00
2022-11-16T19:34:03.205Z,100.00
2022-11-16T19:36:32.725Z,100.00
2022-11-16T19:39:00.229Z,100.00
2022-11-16T19:41:32.414Z,100.00
2022-11-16T19:44:01.684Z,100.00
2022-11-16T19:46:31.463Z,100.00
2022-11-16T19:49:00.139Z,100.00
2022-11-16T19:51:31.347Z,100.00
2022-11-16T19:54:00.642Z,100.00
2022-11-16T19:56:29.367Z,100.00
2022-11-16T19:58:57.518Z,100.00
2022-11-16T20:01:29.220Z,100.00
2022-11-16T20:04:00.178Z,100.00
2022-11-16T20:06:30.796Z,100.00
2022-11-16T20:09:02.229Z,100.00
2022-11-16T20:11:34.038Z,100.00
2022-11-16T20:14:04.199Z,100.00
2022-11-16T20:16:38.649Z,100.00
2022-11-16T20:19:08.604Z,100.00
2022-11-16T20:21:39.368Z,100.00
2022-11-16T20:24:09.707Z,100.00
2022-11-16T20:26:41.966Z,100.00
2022-11-16T20:29:15.364Z,100.00
2022-11-16T20:31:45.205Z,100.00
2022-11-16T20:34:14.995Z,100.00
2022-11-16T20:36:45.817Z,100.00
2022-11-16T20:39:29.355Z,100.00
2022-11-16T20:41:56.697Z,100.00
2022-11-16T20:44:24.710Z,100.00
2022-11-16T20:46:52.891Z,100.00
2022-11-16T20:49:20.608Z,100.00
2022-11-16T20:51:49.500Z,100.00
2022-11-16T20:54:16.912Z,100.00
2022-11-16T20:56:44.775Z,100.00
2022-11-16T20:59:12.738Z,100.00
2022-11-16T21:01:41.507Z,100.00
2022-11-16T21:04:10.823Z,100.00
2022-11-16T21:06:38.571Z,100.00
2022-11-16T21:09:06.205Z,100.00
2022-11-16T21:11:53.766Z,100.00
2022-11-16T21:14:23.283Z,100.00
2022-11-16T21:16:50.933Z,100.00
2022-11-16T21:19:18.430Z,100.00
2022-11-16T21:21:46.149Z,100.00
2022-11-16T21:24:13.553Z,100.00
2022-11-16T21:26:41.163Z,100.00
2022-11-16T21:29:08.977Z,100.00
2022-11-16T21:31:37.046Z,100.00
2022-11-16T21:34:05.890Z,100.00
2022-11-16T21:36:34.268Z,100.00
2022-11-16T21:39:01.738Z,100.00
2022-11-16T21:41:29.200Z,100.00
2022-11-16T21:43:57.013Z,100.00
2022-11-16T21:46:26.417Z,100.00
2022-11-16T21:48:56.460Z,100.00
2022-11-16T21:51:26.764Z,100.00
2022-11-16T21:53:55.093Z,100.00
2022-11-16T21:56:24.358Z,100.00
2022-11-16T21:58:53.296Z,100.00
2022-11-16T22:01:22.476Z,100.00
2022-11-16T22:04:10.483Z,100.00
2022-11-16T22:06:56.584Z,100.00
2022-11-16T22:09:24.483Z,100.00
2022-11-16T22:11:51.919Z,100.00
2022-11-16T22:14:19.276Z,100.00
2022-11-16T22:16:46.920Z,100.00
2022-11-16T22:19:14.436Z,100.00
2022-11-16T22:21:41.763Z,100.00
2022-11-16T22:24:09.450Z,100.00
2022-11-16T22:26:38.152Z,100.00
2022-11-16T22:29:05.519Z,100.00
2022-11-16T22:31:33.193Z,100.00
2022-11-16T22:34:00.521Z,100.00
2022-11-16T22:36:28.004Z,100.00
2022-11-16T22:38:57.078Z,100.00
2022-11-16T22:41:24.444Z,100.00
2022-11-16T22:43:51.926Z,100.00
2022-11-16T22:46:19.608Z,100.00
2022-11-16T22:48:47.889Z,100.00
2022-11-16T22:51:22.460Z,100.00
2022-11-16T22:54:04.684Z,100.00
2022-11-16T22:56:33.445Z,100.00
2022-11-16T22:59:02.479Z,100.00
2022-11-16T23:01:29.941Z,100.00
2022-11-16T23:03:57.808Z,100.00
2022-11-16T23:06:25.578Z,100.00
2022-11-16T23:08:54.302Z,100.00
2022-11-16T23:11:42.543Z,100.00
2022-11-16T23:14:33.867Z,100.00
2022-11-16T23:17:02.391Z,100.00
2022-11-16T23:19:49.125Z,100.00
2022-11-16T23:22:37.588Z,100.00
2022-11-16T23:25:25.690Z,100.00
2022-11-16T23:28:16.051Z,100.00
2022-11-16T23:30:44.489Z,100.00
2022-11-16T23:33:12.263Z,100.00
2022-11-16T23:35:39.676Z,100.00
2022-11-16T23:38:08.338Z,100.00
2022-11-16T23:40:38.510Z,100.00
2022-11-16T23:43:26.015Z,100.00
2022-11-16T23:45:53.741Z,100.00
2022-11-16T23:48:21.184Z,100.00
2022-11-16T23:50:48.629Z,100.00
2022-11-16T23:53:16.287Z,100.00
2022-11-16T23:55:43.682Z,100.00
2022-11-16T23:58:14.367Z,100.00
